sensor_id;sensor_type;location;lat;lon;timestamp;P1;durP1;ratioP1;P2;durP2;ratioP2
76107;SDS011;64834;52.516;10.528;2023-08-30T00:00:10;3.22;;;1.45;;
76107;SDS011;64834;52.516;10.528;2023-08-30T00:02:36;3.05;;;1.85;;
76107;SDS011;64834;52.516;10.528;2023-08-30T00:05:02;3.22;;;1.65;;
76107;SDS011;64834;52.516;10.528;2023-08-30T00:07:28;3.40;;;2.03;;
76107;SDS011;64834;52.516;10.528;2023-08-30T00:09:54;5.40;;;1.88;;
76107;SDS011;64834;52.516;10.528;2023-08-30T00:12:19;2.55;;;2.13;;
76107;SDS011;64834;52.516;10.528;2023-08-30T00:14:44;2.42;;;1.80;;
76107;SDS011;64834;52.516;10.528;2023-08-30T00:17:10;2.25;;;1.63;;
76107;SDS011;64834;52.516;10.528;2023-08-30T00:19:35;4.90;;;1.80;;
76107;SDS011;64834;52.516;10.528;2023-08-30T00:22:01;5.15;;;2.03;;
76107;SDS011;64834;52.516;10.528;2023-08-30T00:24:26;3.67;;;2.08;;
76107;SDS011;64834;52.516;10.528;2023-08-30T00:26:53;3.10;;;2.08;;
76107;SDS011;64834;52.516;10.528;2023-08-30T00:29:18;3.80;;;2.03;;
76107;SDS011;64834;52.516;10.528;2023-08-30T00:31:43;3.40;;;2.00;;
76107;SDS011;64834;52.516;10.528;2023-08-30T00:34:09;2.60;;;1.92;;
76107;SDS011;64834;52.516;10.528;2023-08-30T00:36:34;3.58;;;1.67;;
76107;SDS011;64834;52.516;10.528;2023-08-30T00:39:00;4.75;;;2.10;;
76107;SDS011;64834;52.516;10.528;2023-08-30T00:41:25;2.22;;;1.75;;
76107;SDS011;64834;52.516;10.528;2023-08-30T00:43:50;4.30;;;1.80;;
76107;SDS011;64834;52.516;10.528;2023-08-30T00:46:16;3.53;;;1.98;;
76107;SDS011;64834;52.516;10.528;2023-08-30T00:48:41;2.38;;;2.00;;
76107;SDS011;64834;52.516;10.528;2023-08-30T00:51:09;3.33;;;2.10;;
76107;SDS011;64834;52.516;10.528;2023-08-30T00:53:34;6.22;;;1.90;;
76107;SDS011;64834;52.516;10.528;2023-08-30T00:56:00;3.28;;;2.08;;
76107;SDS011;64834;52.516;10.528;2023-08-30T00:58:25;3.35;;;2.20;;
76107;SDS011;64834;52.516;10.528;2023-08-30T01:00:54;2.42;;;1.90;;
76107;SDS011;64834;52.516;10.528;2023-08-30T01:03:19;2.42;;;1.80;;
76107;SDS011;64834;52.516;10.528;2023-08-30T01:05:46;2.45;;;1.90;;
76107;SDS011;64834;52.516;10.528;2023-08-30T01:08:12;3.42;;;2.25;;
76107;SDS011;64834;52.516;10.528;2023-08-30T01:10:44;2.20;;;1.55;;
76107;SDS011;64834;52.516;10.528;2023-08-30T01:15:46;4.15;;;1.80;;
76107;SDS011;64834;52.516;10.528;2023-08-30T01:18:13;3.63;;;1.70;;
76107;SDS011;64834;52.516;10.528;2023-08-30T01:20:42;2.78;;;1.40;;
76107;SDS011;64834;52.516;10.528;2023-08-30T01:23:17;4.00;;;1.80;;
76107;SDS011;64834;52.516;10.528;2023-08-30T01:25:53;2.72;;;1.65;;
76107;SDS011;64834;52.516;10.528;2023-08-30T01:28:28;4.57;;;1.80;;
76107;SDS011;64834;52.516;10.528;2023-08-30T01:33:22;2.97;;;1.55;;
76107;SDS011;64834;52.516;10.528;2023-08-30T01:35:49;2.22;;;1.50;;
76107;SDS011;64834;52.516;10.528;2023-08-30T01:38:15;2.33;;;1.58;;
76107;SDS011;64834;52.516;10.528;2023-08-30T01:40:42;4.72;;;1.77;;
76107;SDS011;64834;52.516;10.528;2023-08-30T01:43:08;2.50;;;1.80;;
76107;SDS011;64834;52.516;10.528;2023-08-30T01:45:36;3.65;;;1.83;;
76107;SDS011;64834;52.516;10.528;2023-08-30T01:48:05;3.53;;;1.95;;
76107;SDS011;64834;52.516;10.528;2023-08-30T01:50:34;3.83;;;2.35;;
76107;SDS011;64834;52.516;10.528;2023-08-30T01:52:59;4.30;;;2.38;;
76107;SDS011;64834;52.516;10.528;2023-08-30T01:55:26;4.68;;;2.22;;
76107;SDS011;64834;52.516;10.528;2023-08-30T01:57:53;4.43;;;2.67;;
76107;SDS011;64834;52.516;10.528;2023-08-30T02:00:18;3.72;;;2.65;;
76107;SDS011;64834;52.516;10.528;2023-08-30T02:02:44;3.00;;;2.50;;
76107;SDS011;64834;52.516;10.528;2023-08-30T02:05:09;3.35;;;2.70;;
76107;SDS011;64834;52.516;10.528;2023-08-30T02:10:06;3.03;;;2.55;;
76107;SDS011;64834;52.516;10.528;2023-08-30T02:12:37;5.28;;;2.90;;
76107;SDS011;64834;52.516;10.528;2023-08-30T02:15:07;3.85;;;3.00;;
76107;SDS011;64834;52.516;10.528;2023-08-30T02:17:35;3.97;;;2.70;;
76107;SDS011;64834;52.516;10.528;2023-08-30T02:20:02;3.20;;;2.40;;
76107;SDS011;64834;52.516;10.528;2023-08-30T02:22:30;4.10;;;3.30;;
76107;SDS011;64834;52.516;10.528;2023-08-30T02:24:55;5.22;;;2.80;;
76107;SDS011;64834;52.516;10.528;2023-08-30T02:27:21;4.35;;;2.45;;
76107;SDS011;64834;52.516;10.528;2023-08-30T02:29:46;3.10;;;2.65;;
76107;SDS011;64834;52.516;10.528;2023-08-30T02:32:11;4.28;;;2.95;;
76107;SDS011;64834;52.516;10.528;2023-08-30T02:34:37;4.88;;;2.88;;
76107;SDS011;64834;52.516;10.528;2023-08-30T02:37:02;4.53;;;2.97;;
76107;SDS011;64834;52.516;10.528;2023-08-30T02:39:27;6.10;;;3.55;;
76107;SDS011;64834;52.516;10.528;2023-08-30T02:41:52;4.63;;;3.10;;
76107;SDS011;64834;52.516;10.528;2023-08-30T02:44:18;4.75;;;3.10;;
76107;SDS011;64834;52.516;10.528;2023-08-30T02:46:43;4.32;;;3.10;;
76107;SDS011;64834;52.516;10.528;2023-08-30T02:49:09;3.30;;;2.80;;
76107;SDS011;64834;52.516;10.528;2023-08-30T02:51:36;6.18;;;3.70;;
76107;SDS011;64834;52.516;10.528;2023-08-30T02:54:01;4.00;;;3.05;;
76107;SDS011;64834;52.516;10.528;2023-08-30T02:56:27;3.55;;;3.03;;
76107;SDS011;64834;52.516;10.528;2023-08-30T02:58:52;5.78;;;3.28;;
76107;SDS011;64834;52.516;10.528;2023-08-30T03:01:17;4.32;;;3.22;;
76107;SDS011;64834;52.516;10.528;2023-08-30T03:03:42;4.63;;;3.05;;
76107;SDS011;64834;52.516;10.528;2023-08-30T03:06:08;4.63;;;3.20;;
76107;SDS011;64834;52.516;10.528;2023-08-30T03:08:33;5.68;;;3.80;;
76107;SDS011;64834;52.516;10.528;2023-08-30T03:11:11;7.70;;;3.67;;
76107;SDS011;64834;52.516;10.528;2023-08-30T03:13:37;5.22;;;3.75;;
76107;SDS011;64834;52.516;10.528;2023-08-30T03:16:12;5.10;;;3.35;;
76107;SDS011;64834;52.516;10.528;2023-08-30T03:18:38;4.35;;;3.53;;
76107;SDS011;64834;52.516;10.528;2023-08-30T03:21:04;5.80;;;3.92;;
76107;SDS011;64834;52.516;10.528;2023-08-30T03:23:30;6.13;;;3.83;;
76107;SDS011;64834;52.516;10.528;2023-08-30T03:25:57;6.97;;;3.28;;
76107;SDS011;64834;52.516;10.528;2023-08-30T03:28:23;3.38;;;2.63;;
76107;SDS011;64834;52.516;10.528;2023-08-30T03:30:48;3.90;;;2.88;;
76107;SDS011;64834;52.516;10.528;2023-08-30T03:33:13;3.85;;;2.55;;
76107;SDS011;64834;52.516;10.528;2023-08-30T03:35:38;6.10;;;3.03;;
76107;SDS011;64834;52.516;10.528;2023-08-30T03:38:04;3.63;;;2.80;;
76107;SDS011;64834;52.516;10.528;2023-08-30T03:40:29;4.47;;;2.78;;
76107;SDS011;64834;52.516;10.528;2023-08-30T03:42:55;6.30;;;3.28;;
76107;SDS011;64834;52.516;10.528;2023-08-30T03:45:20;4.00;;;2.80;;
76107;SDS011;64834;52.516;10.528;2023-08-30T03:47:46;4.45;;;2.40;;
76107;SDS011;64834;52.516;10.528;2023-08-30T03:50:11;5.35;;;2.67;;
76107;SDS011;64834;52.516;10.528;2023-08-30T03:52:36;3.78;;;2.88;;
76107;SDS011;64834;52.516;10.528;2023-08-30T03:55:02;5.85;;;3.45;;
76107;SDS011;64834;52.516;10.528;2023-08-30T03:57:27;4.90;;;3.55;;
76107;SDS011;64834;52.516;10.528;2023-08-30T03:59:53;4.57;;;3.45;;
76107;SDS011;64834;52.516;10.528;2023-08-30T04:02:18;4.97;;;4.00;;
76107;SDS011;64834;52.516;10.528;2023-08-30T04:04:46;5.10;;;3.65;;
76107;SDS011;64834;52.516;10.528;2023-08-30T04:07:12;6.20;;;4.30;;
76107;SDS011;64834;52.516;10.528;2023-08-30T04:09:37;6.60;;;3.85;;
76107;SDS011;64834;52.516;10.528;2023-08-30T04:12:03;6.13;;;3.65;;
76107;SDS011;64834;52.516;10.528;2023-08-30T04:14:29;6.45;;;3.83;;
76107;SDS011;64834;52.516;10.528;2023-08-30T04:16:55;8.55;;;4.47;;
76107;SDS011;64834;52.516;10.528;2023-08-30T04:19:20;5.85;;;4.03;;
76107;SDS011;64834;52.516;10.528;2023-08-30T04:21:45;6.38;;;4.07;;
76107;SDS011;64834;52.516;10.528;2023-08-30T04:24:11;6.50;;;4.40;;
76107;SDS011;64834;52.516;10.528;2023-08-30T04:26:36;7.80;;;4.82;;
76107;SDS011;64834;52.516;10.528;2023-08-30T04:29:02;6.35;;;4.40;;
76107;SDS011;64834;52.516;10.528;2023-08-30T04:31:28;8.45;;;4.70;;
76107;SDS011;64834;52.516;10.528;2023-08-30T04:33:53;6.10;;;4.30;;
76107;SDS011;64834;52.516;10.528;2023-08-30T04:36:20;5.82;;;4.40;;
76107;SDS011;64834;52.516;10.528;2023-08-30T04:38:45;6.25;;;4.22;;
76107;SDS011;64834;52.516;10.528;2023-08-30T04:41:11;5.50;;;4.00;;
76107;SDS011;64834;52.516;10.528;2023-08-30T04:43:36;5.15;;;4.05;;
76107;SDS011;64834;52.516;10.528;2023-08-30T04:46:02;4.53;;;3.42;;
76107;SDS011;64834;52.516;10.528;2023-08-30T04:48:27;5.63;;;3.63;;
76107;SDS011;64834;52.516;10.528;2023-08-30T04:51:00;5.25;;;4.05;;
76107;SDS011;64834;52.516;10.528;2023-08-30T04:53:29;5.55;;;3.78;;
76107;SDS011;64834;52.516;10.528;2023-08-30T04:55:54;4.82;;;3.92;;
76107;SDS011;64834;52.516;10.528;2023-08-30T04:58:20;7.75;;;4.80;;
76107;SDS011;64834;52.516;10.528;2023-08-30T05:00:45;5.70;;;4.55;;
76107;SDS011;64834;52.516;10.528;2023-08-30T05:03:11;6.55;;;4.78;;
76107;SDS011;64834;52.516;10.528;2023-08-30T05:05:36;7.32;;;5.32;;
76107;SDS011;64834;52.516;10.528;2023-08-30T05:08:02;7.30;;;5.20;;
76107;SDS011;64834;52.516;10.528;2023-08-30T05:10:28;7.70;;;5.90;;
76107;SDS011;64834;52.516;10.528;2023-08-30T05:12:54;9.95;;;5.53;;
76107;SDS011;64834;52.516;10.528;2023-08-30T05:15:19;11.07;;;5.97;;
76107;SDS011;64834;52.516;10.528;2023-08-30T05:17:45;11.48;;;6.28;;
76107;SDS011;64834;52.516;10.528;2023-08-30T05:20:10;9.38;;;6.25;;
76107;SDS011;64834;52.516;10.528;2023-08-30T05:22:36;9.43;;;6.28;;
76107;SDS011;64834;52.516;10.528;2023-08-30T05:25:01;9.70;;;6.40;;
76107;SDS011;64834;52.516;10.528;2023-08-30T05:27:27;6.40;;;5.13;;
76107;SDS011;64834;52.516;10.528;2023-08-30T05:29:53;10.25;;;6.30;;
76107;SDS011;64834;52.516;10.528;2023-08-30T05:32:18;9.48;;;6.47;;
76107;SDS011;64834;52.516;10.528;2023-08-30T05:34:44;9.13;;;6.55;;
76107;SDS011;64834;52.516;10.528;2023-08-30T05:37:11;10.63;;;6.97;;
76107;SDS011;64834;52.516;10.528;2023-08-30T05:39:36;9.20;;;6.93;;
76107;SDS011;64834;52.516;10.528;2023-08-30T05:42:02;9.27;;;6.82;;
76107;SDS011;64834;52.516;10.528;2023-08-30T05:44:27;9.30;;;6.80;;
76107;SDS011;64834;52.516;10.528;2023-08-30T05:46:53;9.00;;;6.13;;
76107;SDS011;64834;52.516;10.528;2023-08-30T05:49:18;9.93;;;7.13;;
76107;SDS011;64834;52.516;10.528;2023-08-30T05:51:43;8.32;;;6.65;;
76107;SDS011;64834;52.516;10.528;2023-08-30T05:54:09;10.00;;;6.78;;
76107;SDS011;64834;52.516;10.528;2023-08-30T05:56:34;7.80;;;5.72;;
76107;SDS011;64834;52.516;10.528;2023-08-30T05:59:00;8.35;;;6.28;;
76107;SDS011;64834;52.516;10.528;2023-08-30T06:01:25;7.32;;;5.75;;
76107;SDS011;64834;52.516;10.528;2023-08-30T06:03:50;8.23;;;5.93;;
76107;SDS011;64834;52.516;10.528;2023-08-30T06:06:16;9.82;;;5.93;;
76107;SDS011;64834;52.516;10.528;2023-08-30T06:08:42;6.82;;;5.65;;
76107;SDS011;64834;52.516;10.528;2023-08-30T06:11:07;7.40;;;5.90;;
76107;SDS011;64834;52.516;10.528;2023-08-30T06:13:33;7.75;;;5.03;;
76107;SDS011;64834;52.516;10.528;2023-08-30T06:15:58;6.05;;;4.78;;
76107;SDS011;64834;52.516;10.528;2023-08-30T06:18:23;6.40;;;5.18;;
76107;SDS011;64834;52.516;10.528;2023-08-30T06:20:49;6.30;;;5.13;;
76107;SDS011;64834;52.516;10.528;2023-08-30T06:23:14;7.70;;;5.90;;
76107;SDS011;64834;52.516;10.528;2023-08-30T06:25:43;6.53;;;5.18;;
76107;SDS011;64834;52.516;10.528;2023-08-30T06:28:08;6.18;;;4.43;;
76107;SDS011;64834;52.516;10.528;2023-08-30T06:30:34;6.22;;;5.15;;
76107;SDS011;64834;52.516;10.528;2023-08-30T06:32:59;7.43;;;5.72;;
76107;SDS011;64834;52.516;10.528;2023-08-30T06:35:25;6.60;;;5.35;;
76107;SDS011;64834;52.516;10.528;2023-08-30T06:37:50;6.25;;;4.75;;
76107;SDS011;64834;52.516;10.528;2023-08-30T06:40:17;6.63;;;4.88;;
76107;SDS011;64834;52.516;10.528;2023-08-30T06:42:42;6.40;;;4.65;;
76107;SDS011;64834;52.516;10.528;2023-08-30T06:45:07;5.55;;;4.40;;
76107;SDS011;64834;52.516;10.528;2023-08-30T06:47:33;6.25;;;4.50;;
76107;SDS011;64834;52.516;10.528;2023-08-30T06:49:59;5.00;;;4.28;;
76107;SDS011;64834;52.516;10.528;2023-08-30T06:52:25;6.00;;;4.70;;
76107;SDS011;64834;52.516;10.528;2023-08-30T06:54:50;5.28;;;4.32;;
76107;SDS011;64834;52.516;10.528;2023-08-30T06:57:16;9.40;;;4.70;;
76107;SDS011;64834;52.516;10.528;2023-08-30T06:59:41;7.40;;;4.47;;
76107;SDS011;64834;52.516;10.528;2023-08-30T07:02:07;6.90;;;4.75;;
76107;SDS011;64834;52.516;10.528;2023-08-30T07:04:33;6.72;;;4.20;;
76107;SDS011;64834;52.516;10.528;2023-08-30T07:06:58;6.03;;;4.38;;
76107;SDS011;64834;52.516;10.528;2023-08-30T07:09:24;4.97;;;4.20;;
76107;SDS011;64834;52.516;10.528;2023-08-30T07:11:54;5.22;;;4.00;;
76107;SDS011;64834;52.516;10.528;2023-08-30T07:14:20;5.85;;;3.92;;
76107;SDS011;64834;52.516;10.528;2023-08-30T07:16:45;5.25;;;3.60;;
76107;SDS011;64834;52.516;10.528;2023-08-30T07:19:10;4.28;;;3.20;;
76107;SDS011;64834;52.516;10.528;2023-08-30T07:21:36;4.38;;;3.53;;
76107;SDS011;64834;52.516;10.528;2023-08-30T07:24:03;5.43;;;3.67;;
76107;SDS011;64834;52.516;10.528;2023-08-30T07:26:29;4.43;;;3.17;;
76107;SDS011;64834;52.516;10.528;2023-08-30T07:28:55;4.80;;;3.38;;
76107;SDS011;64834;52.516;10.528;2023-08-30T07:31:20;4.85;;;2.90;;
76107;SDS011;64834;52.516;10.528;2023-08-30T07:33:46;6.63;;;3.22;;
76107;SDS011;64834;52.516;10.528;2023-08-30T07:36:11;3.80;;;2.88;;
76107;SDS011;64834;52.516;10.528;2023-08-30T07:38:37;6.22;;;3.03;;
76107;SDS011;64834;52.516;10.528;2023-08-30T07:41:02;4.47;;;3.15;;
76107;SDS011;64834;52.516;10.528;2023-08-30T07:43:28;4.53;;;3.00;;
76107;SDS011;64834;52.516;10.528;2023-08-30T07:45:53;3.67;;;2.72;;
76107;SDS011;64834;52.516;10.528;2023-08-30T07:48:18;3.50;;;2.58;;
76107;SDS011;64834;52.516;10.528;2023-08-30T07:50:44;4.10;;;2.92;;
76107;SDS011;64834;52.516;10.528;2023-08-30T07:53:09;4.53;;;3.28;;
76107;SDS011;64834;52.516;10.528;2023-08-30T07:55:35;4.78;;;2.70;;
76107;SDS011;64834;52.516;10.528;2023-08-30T07:58:01;3.50;;;3.05;;
76107;SDS011;64834;52.516;10.528;2023-08-30T08:00:28;4.97;;;2.80;;
76107;SDS011;64834;52.516;10.528;2023-08-30T08:02:53;3.53;;;2.65;;
76107;SDS011;64834;52.516;10.528;2023-08-30T08:05:19;5.47;;;2.85;;
76107;SDS011;64834;52.516;10.528;2023-08-30T08:07:44;2.95;;;2.40;;
76107;SDS011;64834;52.516;10.528;2023-08-30T08:10:09;4.97;;;2.75;;
76107;SDS011;64834;52.516;10.528;2023-08-30T08:12:35;5.10;;;2.95;;
76107;SDS011;64834;52.516;10.528;2023-08-30T08:15:00;4.82;;;2.97;;
76107;SDS011;64834;52.516;10.528;2023-08-30T08:17:25;3.30;;;2.13;;
76107;SDS011;64834;52.516;10.528;2023-08-30T08:19:51;6.00;;;2.70;;
76107;SDS011;64834;52.516;10.528;2023-08-30T08:22:16;4.07;;;2.80;;
76107;SDS011;64834;52.516;10.528;2023-08-30T08:24:42;3.15;;;2.60;;
76107;SDS011;64834;52.516;10.528;2023-08-30T08:27:08;3.80;;;2.30;;
76107;SDS011;64834;52.516;10.528;2023-08-30T08:29:34;3.25;;;2.30;;
76107;SDS011;64834;52.516;10.528;2023-08-30T08:31:59;3.63;;;2.05;;
76107;SDS011;64834;52.516;10.528;2023-08-30T08:34:24;2.50;;;2.20;;
76107;SDS011;64834;52.516;10.528;2023-08-30T08:36:50;3.08;;;2.10;;
76107;SDS011;64834;52.516;10.528;2023-08-30T08:39:15;5.00;;;2.47;;
76107;SDS011;64834;52.516;10.528;2023-08-30T08:41:42;3.10;;;2.25;;
76107;SDS011;64834;52.516;10.528;2023-08-30T08:44:08;4.38;;;2.40;;
76107;SDS011;64834;52.516;10.528;2023-08-30T08:46:35;2.55;;;2.15;;
76107;SDS011;64834;52.516;10.528;2023-08-30T08:49:09;3.38;;;2.42;;
76107;SDS011;64834;52.516;10.528;2023-08-30T08:51:36;3.80;;;2.03;;
76107;SDS011;64834;52.516;10.528;2023-08-30T08:54:03;6.00;;;3.20;;
76107;SDS011;64834;52.516;10.528;2023-08-30T08:56:32;3.75;;;2.83;;
76107;SDS011;64834;52.516;10.528;2023-08-30T08:59:01;4.55;;;2.70;;
76107;SDS011;64834;52.516;10.528;2023-08-30T09:01:27;7.05;;;3.40;;
76107;SDS011;64834;52.516;10.528;2023-08-30T09:03:53;3.78;;;2.92;;
76107;SDS011;64834;52.516;10.528;2023-08-30T09:06:18;5.13;;;2.75;;
76107;SDS011;64834;52.516;10.528;2023-08-30T09:08:45;5.40;;;3.10;;
76107;SDS011;64834;52.516;10.528;2023-08-30T09:11:11;7.38;;;3.80;;
76107;SDS011;64834;52.516;10.528;2023-08-30T09:13:36;4.78;;;3.03;;
76107;SDS011;64834;52.516;10.528;2023-08-30T09:16:01;4.88;;;3.40;;
76107;SDS011;64834;52.516;10.528;2023-08-30T09:18:30;6.25;;;4.07;;
76107;SDS011;64834;52.516;10.528;2023-08-30T09:21:05;6.28;;;4.22;;
76107;SDS011;64834;52.516;10.528;2023-08-30T09:23:34;5.57;;;3.72;;
76107;SDS011;64834;52.516;10.528;2023-08-30T09:26:00;5.55;;;3.60;;
76107;SDS011;64834;52.516;10.528;2023-08-30T09:28:27;4.95;;;3.30;;
76107;SDS011;64834;52.516;10.528;2023-08-30T09:30:53;4.13;;;2.60;;
76107;SDS011;64834;52.516;10.528;2023-08-30T09:33:22;4.88;;;3.17;;
76107;SDS011;64834;52.516;10.528;2023-08-30T09:35:48;6.00;;;3.67;;
76107;SDS011;64834;52.516;10.528;2023-08-30T09:38:19;5.25;;;3.38;;
76107;SDS011;64834;52.516;10.528;2023-08-30T09:40:45;6.15;;;3.63;;
76107;SDS011;64834;52.516;10.528;2023-08-30T09:43:11;7.18;;;3.83;;
76107;SDS011;64834;52.516;10.528;2023-08-30T09:45:37;7.10;;;3.70;;
76107;SDS011;64834;52.516;10.528;2023-08-30T09:48:03;5.50;;;3.45;;
76107;SDS011;64834;52.516;10.528;2023-08-30T09:50:32;5.80;;;3.60;;
76107;SDS011;64834;52.516;10.528;2023-08-30T09:53:05;4.80;;;3.17;;
76107;SDS011;64834;52.516;10.528;2023-08-30T09:55:32;5.75;;;3.63;;
76107;SDS011;64834;52.516;10.528;2023-08-30T09:57:58;4.72;;;3.10;;
76107;SDS011;64834;52.516;10.528;2023-08-30T10:00:24;4.60;;;3.17;;
76107;SDS011;64834;52.516;10.528;2023-08-30T10:02:49;7.45;;;2.60;;
76107;SDS011;64834;52.516;10.528;2023-08-30T10:05:15;3.70;;;2.20;;
76107;SDS011;64834;52.516;10.528;2023-08-30T10:07:41;4.90;;;2.88;;
76107;SDS011;64834;52.516;10.528;2023-08-30T10:10:08;5.68;;;2.78;;
76107;SDS011;64834;52.516;10.528;2023-08-30T10:12:35;3.92;;;2.70;;
76107;SDS011;64834;52.516;10.528;2023-08-30T10:15:01;5.43;;;3.30;;
76107;SDS011;64834;52.516;10.528;2023-08-30T10:17:28;5.30;;;2.72;;
76107;SDS011;64834;52.516;10.528;2023-08-30T10:19:57;4.50;;;2.83;;
76107;SDS011;64834;52.516;10.528;2023-08-30T10:22:24;6.28;;;3.33;;
76107;SDS011;64834;52.516;10.528;2023-08-30T10:24:54;4.55;;;2.80;;
76107;SDS011;64834;52.516;10.528;2023-08-30T10:27:23;5.30;;;2.88;;
76107;SDS011;64834;52.516;10.528;2023-08-30T10:29:49;6.38;;;2.90;;
76107;SDS011;64834;52.516;10.528;2023-08-30T10:32:22;5.05;;;3.05;;
76107;SDS011;64834;52.516;10.528;2023-08-30T10:34:48;4.82;;;2.40;;
76107;SDS011;64834;52.516;10.528;2023-08-30T10:39:41;4.75;;;2.63;;
76107;SDS011;64834;52.516;10.528;2023-08-30T10:42:13;4.45;;;1.90;;
76107;SDS011;64834;52.516;10.528;2023-08-30T10:44:46;3.78;;;2.50;;
76107;SDS011;64834;52.516;10.528;2023-08-30T10:47:19;2.97;;;2.00;;
76107;SDS011;64834;52.516;10.528;2023-08-30T10:49:47;3.00;;;1.88;;
76107;SDS011;64834;52.516;10.528;2023-08-30T10:52:13;5.00;;;2.45;;
76107;SDS011;64834;52.516;10.528;2023-08-30T10:54:38;5.05;;;2.63;;
76107;SDS011;64834;52.516;10.528;2023-08-30T10:57:04;5.05;;;2.05;;
76107;SDS011;64834;52.516;10.528;2023-08-30T10:59:29;4.10;;;2.70;;
76107;SDS011;64834;52.516;10.528;2023-08-30T11:01:55;4.28;;;2.17;;
76107;SDS011;64834;52.516;10.528;2023-08-30T11:04:21;4.22;;;1.98;;
76107;SDS011;64834;52.516;10.528;2023-08-30T11:06:50;6.13;;;3.38;;
76107;SDS011;64834;52.516;10.528;2023-08-30T11:09:17;4.57;;;2.90;;
76107;SDS011;64834;52.516;10.528;2023-08-30T11:11:47;4.68;;;3.40;;
76107;SDS011;64834;52.516;10.528;2023-08-30T11:14:13;5.68;;;3.55;;
76107;SDS011;64834;52.516;10.528;2023-08-30T11:16:40;4.50;;;3.55;;
76107;SDS011;64834;52.516;10.528;2023-08-30T11:19:06;5.07;;;3.72;;
76107;SDS011;64834;52.516;10.528;2023-08-30T11:21:34;5.65;;;4.20;;
76107;SDS011;64834;52.516;10.528;2023-08-30T11:24:04;5.50;;;3.95;;
76107;SDS011;64834;52.516;10.528;2023-08-30T11:26:31;7.28;;;4.50;;
76107;SDS011;64834;52.516;10.528;2023-08-30T11:28:56;5.60;;;4.10;;
76107;SDS011;64834;52.516;10.528;2023-08-30T11:31:22;6.53;;;4.10;;
76107;SDS011;64834;52.516;10.528;2023-08-30T11:33:52;6.95;;;4.22;;
76107;SDS011;64834;52.516;10.528;2023-08-30T11:36:20;5.28;;;3.58;;
76107;SDS011;64834;52.516;10.528;2023-08-30T11:38:47;5.43;;;3.65;;
76107;SDS011;64834;52.516;10.528;2023-08-30T11:41:13;5.70;;;3.80;;
76107;SDS011;64834;52.516;10.528;2023-08-30T11:43:38;5.38;;;3.83;;
76107;SDS011;64834;52.516;10.528;2023-08-30T11:46:05;5.07;;;3.30;;
76107;SDS011;64834;52.516;10.528;2023-08-30T11:48:30;4.32;;;2.70;;
76107;SDS011;64834;52.516;10.528;2023-08-30T11:50:56;5.57;;;3.40;;
76107;SDS011;64834;52.516;10.528;2023-08-30T11:53:23;5.65;;;3.17;;
76107;SDS011;64834;52.516;10.528;2023-08-30T11:55:48;8.45;;;3.60;;
76107;SDS011;64834;52.516;10.528;2023-08-30T11:58:14;4.25;;;3.38;;
76107;SDS011;64834;52.516;10.528;2023-08-30T12:00:39;5.05;;;3.03;;
76107;SDS011;64834;52.516;10.528;2023-08-30T12:03:05;4.20;;;2.83;;
76107;SDS011;64834;52.516;10.528;2023-08-30T12:05:30;5.25;;;2.90;;
76107;SDS011;64834;52.516;10.528;2023-08-30T12:07:59;3.85;;;2.95;;
76107;SDS011;64834;52.516;10.528;2023-08-30T12:10:28;4.45;;;2.97;;
76107;SDS011;64834;52.516;10.528;2023-08-30T12:12:53;4.55;;;3.10;;
76107;SDS011;64834;52.516;10.528;2023-08-30T12:15:21;4.28;;;2.53;;
76107;SDS011;64834;52.516;10.528;2023-08-30T12:17:49;3.40;;;2.38;;
76107;SDS011;64834;52.516;10.528;2023-08-30T12:20:15;3.85;;;2.65;;
76107;SDS011;64834;52.516;10.528;2023-08-30T12:22:42;3.97;;;2.13;;
76107;SDS011;64834;52.516;10.528;2023-08-30T12:25:18;2.95;;;2.28;;
76107;SDS011;64834;52.516;10.528;2023-08-30T12:27:44;2.63;;;1.90;;
76107;SDS011;64834;52.516;10.528;2023-08-30T12:30:09;3.42;;;1.85;;
76107;SDS011;64834;52.516;10.528;2023-08-30T12:32:35;5.20;;;2.72;;
76107;SDS011;64834;52.516;10.528;2023-08-30T12:35:00;3.47;;;2.28;;
76107;SDS011;64834;52.516;10.528;2023-08-30T12:37:25;2.65;;;2.17;;
76107;SDS011;64834;52.516;10.528;2023-08-30T12:39:51;3.63;;;2.50;;
76107;SDS011;64834;52.516;10.528;2023-08-30T12:42:16;3.72;;;2.55;;
76107;SDS011;64834;52.516;10.528;2023-08-30T12:44:41;3.67;;;2.80;;
76107;SDS011;64834;52.516;10.528;2023-08-30T12:47:07;6.55;;;3.17;;
76107;SDS011;64834;52.516;10.528;2023-08-30T12:49:32;4.28;;;2.78;;
76107;SDS011;64834;52.516;10.528;2023-08-30T12:51:57;5.10;;;3.58;;
76107;SDS011;64834;52.516;10.528;2023-08-30T12:54:23;4.57;;;3.50;;
76107;SDS011;64834;52.516;10.528;2023-08-30T12:56:48;5.78;;;3.55;;
76107;SDS011;64834;52.516;10.528;2023-08-30T12:59:13;4.57;;;3.42;;
76107;SDS011;64834;52.516;10.528;2023-08-30T13:01:39;6.13;;;3.22;;
76107;SDS011;64834;52.516;10.528;2023-08-30T13:04:04;3.90;;;2.63;;
76107;SDS011;64834;52.516;10.528;2023-08-30T13:06:29;4.50;;;2.90;;
76107;SDS011;64834;52.516;10.528;2023-08-30T13:08:55;4.03;;;3.13;;
76107;SDS011;64834;52.516;10.528;2023-08-30T13:11:20;4.55;;;4.03;;
76107;SDS011;64834;52.516;10.528;2023-08-30T13:13:45;4.57;;;3.85;;
76107;SDS011;64834;52.516;10.528;2023-08-30T13:16:10;3.92;;;3.40;;
76107;SDS011;64834;52.516;10.528;2023-08-30T13:18:36;8.43;;;4.22;;
76107;SDS011;64834;52.516;10.528;2023-08-30T13:21:01;4.13;;;2.88;;
76107;SDS011;64834;52.516;10.528;2023-08-30T13:23:26;3.47;;;3.17;;
76107;SDS011;64834;52.516;10.528;2023-08-30T13:25:52;3.90;;;2.72;;
76107;SDS011;64834;52.516;10.528;2023-08-30T13:28:17;3.47;;;2.70;;
76107;SDS011;64834;52.516;10.528;2023-08-30T13:30:45;2.90;;;2.60;;
76107;SDS011;64834;52.516;10.528;2023-08-30T13:33:11;5.72;;;3.38;;
76107;SDS011;64834;52.516;10.528;2023-08-30T13:35:40;4.38;;;2.83;;
76107;SDS011;64834;52.516;10.528;2023-08-30T13:38:06;4.75;;;3.00;;
76107;SDS011;64834;52.516;10.528;2023-08-30T13:40:31;4.13;;;3.00;;
76107;SDS011;64834;52.516;10.528;2023-08-30T13:42:56;4.60;;;3.35;;
76107;SDS011;64834;52.516;10.528;2023-08-30T13:45:22;4.05;;;3.63;;
76107;SDS011;64834;52.516;10.528;2023-08-30T13:47:47;4.43;;;3.63;;
76107;SDS011;64834;52.516;10.528;2023-08-30T13:50:12;5.13;;;4.13;;
76107;SDS011;64834;52.516;10.528;2023-08-30T13:52:38;4.30;;;3.78;;
76107;SDS011;64834;52.516;10.528;2023-08-30T13:55:03;4.35;;;3.45;;
76107;SDS011;64834;52.516;10.528;2023-08-30T13:57:30;4.10;;;3.03;;
76107;SDS011;64834;52.516;10.528;2023-08-30T13:59:55;3.75;;;2.90;;
76107;SDS011;64834;52.516;10.528;2023-08-30T14:02:20;3.55;;;3.13;;
76107;SDS011;64834;52.516;10.528;2023-08-30T14:04:46;3.88;;;3.25;;
76107;SDS011;64834;52.516;10.528;2023-08-30T14:07:11;4.47;;;2.90;;
76107;SDS011;64834;52.516;10.528;2023-08-30T14:09:37;5.18;;;3.20;;
76107;SDS011;64834;52.516;10.528;2023-08-30T14:12:02;4.40;;;3.33;;
76107;SDS011;64834;52.516;10.528;2023-08-30T14:14:29;4.70;;;3.13;;
76107;SDS011;64834;52.516;10.528;2023-08-30T14:16:54;4.15;;;3.30;;
76107;SDS011;64834;52.516;10.528;2023-08-30T14:19:19;3.90;;;3.40;;
76107;SDS011;64834;52.516;10.528;2023-08-30T14:21:45;4.68;;;3.80;;
76107;SDS011;64834;52.516;10.528;2023-08-30T14:24:10;3.25;;;2.67;;
76107;SDS011;64834;52.516;10.528;2023-08-30T14:26:36;4.50;;;3.20;;
76107;SDS011;64834;52.516;10.528;2023-08-30T14:29:01;4.68;;;3.70;;
76107;SDS011;64834;52.516;10.528;2023-08-30T14:31:27;5.22;;;3.00;;
76107;SDS011;64834;52.516;10.528;2023-08-30T14:33:55;4.43;;;3.20;;
76107;SDS011;64834;52.516;10.528;2023-08-30T14:36:22;4.55;;;3.50;;